| time (UTC) | temp F | wind direction | speed MPH | gust MPH | rain 1hr in | rain 24hr in | rain mn in | humidity % | barometer mb |
| 20260905224520 | 89 | 312 | 0.0 | 2.0 | 0.00 | 0.00 | 0.00 | 71 | 1012.2 |
| 20260905223026 | 89 | 312 | 0.0 | 1.0 | 0.00 | 0.00 | 0.00 | 76 | 1012.4 |
| 20260905221516 | 89 | 255 | 1.0 | 2.0 | 0.00 | 0.00 | 0.00 | 71 | 1012.4 |
| 20260905220011 | 90 | 273 | 1.0 | 3.0 | 0.00 | 0.00 | 0.00 | 69 | 1012.4 |
| 20260905214530 | 90 | 311 | 3.0 | 5.0 | 0.00 | 0.00 | 0.00 | 67 | 1012.4 |
| 20260905213023 | 91 | 273 | 2.0 | 6.0 | 0.00 | 0.01 | 0.00 | 64 | 1012.6 |
| 20260905211528 | 91 | 320 | 2.0 | 6.0 | 0.00 | 0.02 | 0.00 | 65 | 1012.7 |
| 20260905210013 | 91 | 222 | 3.0 | 7.0 | 0.00 | 0.04 | 0.00 | 67 | 1012.7 |
| 20260905204534 | 90 | 350 | 3.0 | 7.0 | 0.00 | 0.07 | 0.00 | 67 | 1012.7 |
| 20260905203028 | 90 | 245 | 2.0 | 8.0 | 0.00 | 0.09 | 0.00 | 69 | 1012.7 |
| 20260905201528 | 90 | 299 | 3.0 | 5.0 | 0.00 | 0.09 | 0.00 | 71 | 1012.7 |
| 20260905200006 | 89 | 293 | 5.0 | 9.0 | 0.00 | 0.10 | 0.00 | 68 | 1012.6 |
| 20260905194519 | 90 | 255 | 5.0 | 10.0 | 0.00 | 0.12 | 0.00 | 68 | 1012.7 |
| 20260905193022 | 89 | 331 | 6.0 | 10.0 | 0.00 | 0.15 | 0.00 | 72 | 1013.1 |
| 20260905191536 | 89 | 317 | 3.0 | 7.0 | 0.00 | 0.23 | 0.00 | 72 | 1013.3 |
| 20260905190031 | 88 | 338 | 6.0 | 8.0 | 0.00 | 0.33 | 0.00 | 72 | 1013.4 |
| 20260905184525 | 88 | 334 | 7.0 | 11.0 | 0.00 | 0.40 | 0.00 | 73 | 1013.6 |
| 20260905183031 | 88 | 282 | 3.0 | 10.0 | 0.00 | 1.21 | 0.00 | 73 | 1013.7 |
| 20260905181527 | 88 | 298 | 5.0 | 10.0 | 0.00 | 1.77 | 0.00 | 74 | 1013.9 |
| 20260905180006 | 87 | 278 | 3.0 | 8.0 | 0.00 | 2.18 | 0.00 | 76 | 1014.0 |
| 20260905174535 | 87 | 352 | 7.0 | 11.0 | 0.00 | 2.35 | 0.00 | 76 | 1014.2 |
| 20260905173035 | 86 | 326 | 4.0 | 8.0 | 0.00 | 2.35 | 0.00 | 80 | 1014.6 |
| 20260905171536 | 86 | 334 | 5.0 | 9.0 | 0.00 | 2.35 | 0.00 | 80 | 1015.0 |
| 20260905170029 | 85 | 233 | 3.0 | 10.0 | 0.00 | 2.35 | 0.00 | 81 | 1015.1 |
| 20260905164508 | 84 | 21 | 2.0 | 5.0 | 0.00 | 2.35 | 0.00 | 84 | 1015.4 |
| 20260905163037 | 85 | 330 | 6.0 | 8.0 | 0.00 | 2.35 | 0.00 | 80 | 1015.7 |
| 20260905161528 | 84 | 277 | 5.0 | 8.0 | 0.00 | 2.35 | 0.00 | 83 | 1015.8 |
| 20260905160001 | 83 | 359 | 4.0 | 8.0 | 0.00 | 2.35 | 0.00 | 87 | 1016.0 |
| 20260905154539 | 83 | 319 | 4.0 | 8.0 | 0.00 | 2.35 | 0.00 | 86 | 1016.1 |
| 20260905153014 | 82 | 300 | 1.0 | 5.0 | 0.00 | 2.35 | 0.00 | 90 | 1016.2 |
| 20260905151532 | 81 | 288 | 4.0 | 7.0 | 0.00 | 2.35 | 0.00 | 90 | 1016.4 |
| 20260905150004 | 80 | 246 | 3.0 | 5.0 | 0.00 | 2.35 | 0.00 | 93 | 1016.4 |
| 20260905144508 | 79 | 309 | 3.0 | 6.0 | 0.00 | 2.35 | 0.00 | 95 | 1016.3 |
| 20260905143013 | 78 | 330 | 2.0 | 5.0 | 0.00 | 2.35 | 0.00 | 97 | 1016.2 |
| 20260905141535 | 77 | 357 | 2.0 | 7.0 | 0.00 | 2.35 | 0.00 | 97 | 1016.3 |
| 20260905140023 | 77 | 327 | 3.0 | 5.0 | 0.00 | 2.35 | 0.00 | 98 | 1016.3 |
| 20260905134503 | 77 | 337 | 1.0 | 3.0 | 0.00 | 2.35 | 0.00 | 98 | 1016.1 |
| 20260905133010 | 76 | 263 | 2.0 | 4.0 | 0.00 | 2.35 | 0.00 | 98 | 1016.0 |
| 20260905131536 | 76 | 269 | 1.0 | 4.0 | 0.00 | 2.35 | 0.00 | 98 | 1016.1 |
| 20260905130022 | 75 | 344 | 1.0 | 3.0 | 0.00 | 2.35 | 0.00 | 98 | 1016.2 |
| 20260905124526 | 75 | 326 | 0.0 | 2.0 | 0.00 | 2.35 | 0.00 | 97 | 1016.0 |
| 20260905123009 | 75 | 1 | 1.0 | 2.0 | 0.00 | 2.35 | 0.00 | 97 | 1015.9 |
| 20260905121516 | 75 | 1 | 1.0 | 3.0 | 0.00 | 2.35 | 0.00 | 97 | 1015.8 |
| 20260905120023 | 75 | 331 | 1.0 | 2.0 | 0.00 | 2.35 | 0.00 | 97 | 1015.5 |
| 20260905114528 | 75 | 328 | 2.0 | 2.0 | 0.00 | 2.35 | 0.00 | 97 | 1015.3 |
| 20260905113032 | 75 | 292 | 0.0 | 2.0 | 0.00 | 2.35 | 0.00 | 97 | 1015.0 |
| 20260905111519 | 75 | 293 | 1.0 | 2.0 | 0.00 | 2.35 | 0.00 | 97 | 1014.8 |
| 20260905110016 | 75 | 276 | 0.0 | 1.0 | 0.00 | 2.35 | 0.00 | 97 | 1014.9 |
| 20260905104525 | 75 | 276 | 0.0 | 2.0 | 0.00 | 2.35 | 0.00 | 97 | 1014.8 |
| 20260905103032 | 75 | 276 | 0.0 | 2.0 | 0.00 | 2.35 | 0.00 | 97 | 1014.7 |
| 20260905101535 | 75 | 276 | 0.0 | 2.0 | 0.00 | 2.35 | 0.00 | 97 | 1014.5 |
| 20260905100022 | 75 | 276 | 1.0 | 2.0 | 0.00 | 2.35 | 0.00 | 97 | 1014.6 |
| 20260905094503 | 75 | 276 | 0.0 | 2.0 | 0.00 | 2.35 | 0.00 | 97 | 1014.6 |
| 20260905093004 | 75 | 257 | 1.0 | 4.0 | 0.00 | 2.35 | 0.00 | 97 | 1014.6 |
| 20260905091508 | 75 | 241 | 0.0 | 2.0 | 0.00 | 2.35 | 0.00 | 97 | 1014.7 |
| 20260905090019 | 75 | 275 | 2.0 | 3.0 | 0.00 | 2.35 | 0.00 | 97 | 1014.6 |
| 20260905084523 | 75 | 245 | 0.0 | 2.0 | 0.00 | 2.35 | 0.00 | 97 | 1014.5 |
| 20260905083004 | 75 | 229 | 0.0 | 2.0 | 0.00 | 2.35 | 0.00 | 97 | 1014.3 |
| 20260905081507 | 75 | 240 | 2.0 | 3.0 | 0.00 | 2.35 | 0.00 | 97 | 1014.2 |
| 20260905080012 | 75 | 236 | 3.0 | 4.0 | 0.00 | 2.35 | 0.00 | 97 | 1014.3 |
| 20260905074518 | 75 | 204 | 0.0 | 2.0 | 0.00 | 2.35 | 0.00 | 97 | 1014.4 |
| 20260905073002 | 75 | 198 | 2.0 | 4.0 | 0.00 | 2.35 | 0.00 | 97 | 1014.5 |
| 20260905071507 | 75 | 178 | 1.0 | 3.0 | 0.00 | 2.35 | 0.00 | 97 | 1014.8 |
| 20260905070011 | 75 | 177 | 2.0 | 3.0 | 0.00 | 2.35 | 0.00 | 97 | 1014.8 |
| 20260905064518 | 75 | 189 | 1.0 | 2.0 | 0.00 | 2.35 | 0.00 | 97 | 1014.9 |
| 20260905063027 | 75 | 189 | 1.0 | 4.0 | 0.00 | 2.35 | 0.00 | 97 | 1015.0 |
| 20260905061504 | 75 | 253 | 0.0 | 2.0 | 0.00 | 2.35 | 0.00 | 97 | 1015.1 |
| 20260905060010 | 74 | 253 | 0.0 | 0.0 | 0.00 | 2.35 | 0.00 | 97 | 1015.2 |
| 20260905054522 | 74 | 253 | 0.0 | 2.0 | 0.00 | 2.35 | 0.00 | 97 | 1015.4 |
| 20260905053023 | 75 | 253 | 0.0 | 2.0 | 0.00 | 2.35 | 0.00 | 97 | 1015.5 |
| 20260905051535 | 75 | 253 | 0.0 | 0.0 | 0.00 | 2.35 | 0.00 | 97 | 1015.4 |
| 20260905050008 | 75 | 253 | 0.0 | 2.0 | 0.00 | 2.35 | 0.00 | 97 | 1015.4 |
| 20260905044515 | 75 | 253 | 0.0 | 1.0 | 0.00 | 2.35 | 0.00 | 97 | 1015.6 |
| 20260905043022 | 75 | 253 | 0.0 | 2.0 | 0.00 | 2.35 | 0.00 | 97 | 1015.5 |
| 20260905041528 | 75 | 357 | 0.0 | 2.0 | 0.00 | 2.35 | 0.00 | 97 | 1015.4 |
| 20260905040032 | 75 | 357 | 1.0 | 2.0 | 0.00 | 2.35 | 0.00 | 97 | 1015.5 |
| 20260905034503 | 75 | 179 | 0.0 | 2.0 | 0.00 | 2.35 | 2.35 | 97 | 1015.7 |
| 20260905033002 | 75 | 179 | 0.0 | 2.0 | 0.00 | 2.35 | 2.35 | 97 | 1015.9 |
| 20260905031508 | 75 | 179 | 0.0 | 2.0 | 0.00 | 2.35 | 2.35 | 97 | 1016.1 |
| 20260905030004 | 75 | 179 | 2.0 | 3.0 | 0.00 | 2.35 | 2.35 | 97 | 1016.1 |
| 20260905024503 | 75 | 24 | 1.0 | 2.0 | 0.00 | 2.35 | 2.35 | 97 | 1016.4 |
| 20260905023007 | 76 | 24 | 1.0 | 1.0 | 0.00 | 2.35 | 2.35 | 97 | 1016.4 |
| 20260905021505 | 76 | 24 | 1.0 | 2.0 | 0.00 | 2.35 | 2.35 | 97 | 1016.6 |
| 20260905020006 | 76 | 190 | 2.0 | 3.0 | 0.00 | 2.35 | 2.35 | 97 | 1016.4 |
| 20260905014509 | 76 | 193 | 0.0 | 2.0 | 0.00 | 2.35 | 2.35 | 97 | 1016.3 |
| 20260905013005 | 76 | 82 | 1.0 | 2.0 | 0.00 | 2.35 | 2.35 | 97 | 1016.3 |
| 20260905011503 | 76 | 186 | 0.0 | 2.0 | 0.00 | 2.35 | 2.35 | 97 | 1016.2 |
| 20260905010005 | 76 | 186 | 2.0 | 2.0 | 0.00 | 2.35 | 2.35 | 97 | 1016.2 |
| 20260905004510 | 76 | 80 | 0.0 | 2.0 | 0.00 | 2.35 | 2.35 | 97 | 1015.9 |
| 20260905003013 | 76 | 80 | 1.0 | 2.0 | 0.00 | 2.35 | 2.35 | 96 | 1015.6 |
| 20260905001516 | 76 | 198 | 1.0 | 3.0 | 0.00 | 2.35 | 2.35 | 97 | 1015.5 |
| 20260905000034 | 76 | 201 | 3.0 | 4.0 | 0.00 | 2.35 | 2.35 | 97 | 1015.5 |
| 20260904234505 | 76 | 167 | 2.0 | 5.0 | 0.00 | 2.35 | 2.35 | 97 | 1015.6 |
| 20260904233009 | 76 | 173 | 0.0 | 3.0 | 0.00 | 2.35 | 2.35 | 97 | 1015.8 |
| 20260904231515 | 76 | 154 | 1.0 | 2.0 | 0.00 | 2.35 | 2.35 | 97 | 1015.8 |
| 20260904230002 | 76 | 203 | 1.0 | 4.0 | 0.00 | 2.35 | 2.35 | 97 | 1015.6 |